FW1874 Weather Reports


Display with metric or nautical units.
time (UTC)temp
F
wind
direction
speed
MPH
gust
MPH
rain 1hr
in
rain 24hr
in
rain mn
in
humidity
%
barometer
mb
20180818121506 65 316 0.0 0.0 0.00 0.89 0.82 97 1014.9
20180818120005 65 316 0.0 0.0 0.00 0.89 0.82 97 1014.9
20180818114505 65 316 0.0 0.0 0.00 0.88 0.81 97 1014.9
20180818113008 64 316 0.0 0.0 0.00 0.87 0.80 97 1014.9
20180818111505 64 316 0.0 0.0 0.00 0.87 0.80 97 1014.9
20180818110018 64 316 0.0 0.0 0.00 0.87 0.80 97 1014.9
20180818104518 64 316 0.0 0.0 0.00 0.87 0.80 97 1014.5
20180818103020 65 316 0.0 0.0 0.00 0.87 0.80 97 1014.5
20180818101523 65 316 0.0 0.0 0.00 0.87 0.80 97 1014.2
20180818100019 65 316 0.0 0.0 0.00 0.87 0.80 97 1014.2
20180818094513 65 316 0.0 0.0 0.00 0.87 0.80 97 1014.2
20180818093018 65 316 0.0 0.0 0.00 0.87 0.80 97 1013.9
20180818091513 65 316 0.0 0.0 0.00 0.87 0.80 97 1013.9
20180818090026 66 316 0.0 0.0 0.00 0.87 0.80 96 1013.9
20180818084517 67 316 0.0 0.0 0.00 0.86 0.79 97 1013.9
20180818083020 67 316 0.0 0.0 0.00 0.84 0.77 97 1013.5
20180818081514 67 316 0.0 0.0 0.00 0.79 0.72 97 1013.9
20180818080006 68 316 0.0 0.0 0.00 0.73 0.66 96 1013.9
20180818074507 68 316 0.0 0.0 0.00 0.63 0.56 96 1013.9
20180818073015 69 316 0.0 0.0 0.00 0.53 0.46 96 1013.9
20180818071524 69 316 0.0 0.0 0.00 0.49 0.42 97 1013.9
20180818070009 69 316 0.0 0.0 0.00 0.48 0.41 97 1013.9
20180818064510 69 316 0.0 0.0 0.00 0.47 0.40 96 1013.9
20180818063006 69 316 0.0 0.0 0.00 0.47 0.40 96 1013.9
20180818061519 69 316 0.0 0.0 0.00 0.47 0.40 96 1013.9
20180818060010 69 316 0.0 0.0 0.00 0.47 0.40 96 1013.9
20180818054505 69 316 0.0 0.0 0.00 0.47 0.39 96 1013.9
20180818051506 70 316 0.0 0.0 0.00 0.45 0.37 95 1014.2
20180818050006 71 316 0.0 0.0 0.00 0.36 0.28 95 1014.5
20180818044510 72 316 0.0 0.0 0.00 0.20 0.12 95 1014.5
20180818043005 72 316 0.0 0.0 0.00 0.18 0.10 96 1014.2
20180818041507 72 316 0.0 0.0 0.00 0.14 0.06 95 1014.5
20180818040009 72 316 0.0 0.0 0.00 0.07 0.07 95 1013.9
20180818034508 72 316 0.0 0.0 0.00 0.06 0.06 95 1014.2
20180818033010 72 316 0.0 0.0 0.00 0.05 0.05 95 1014.5
20180818031505 73 316 0.0 0.0 0.00 0.05 0.05 94 1014.5
20180818030010 73 316 0.0 0.0 0.00 0.05 0.05 94 1014.5
20180818024505 73 316 0.0 0.0 0.00 0.04 0.04 94 1014.5
20180818023005 73 316 0.0 0.0 0.00 0.04 0.04 93 1014.5
20180818021506 73 316 0.0 0.0 0.00 0.04 0.04 93 1014.9
20180818020011 73 316 0.0 0.0 0.00 0.04 0.04 93 1014.9
20180818014512 74 316 0.0 0.0 0.00 0.04 0.04 93 1014.5
20180818013006 74 316 0.0 0.0 0.00 0.04 0.04 93 1014.5
20180818011508 74 316 0.0 0.0 0.00 0.04 0.04 92 1014.5
20180818010015 74 316 0.0 0.0 0.00 0.04 0.04 92 1014.5
20180818004506 74 316 0.0 0.0 0.00 0.04 0.04 91 1013.9
20180818003009 74 316 0.0 0.0 0.00 0.04 0.04 91 1013.9
20180818001509 74 316 0.0 0.0 0.00 0.04 0.04 90 1013.9
20180818000011 74 316 0.0 0.0 0.00 0.04 0.04 90 1013.9
20180817234506 75 316 0.0 0.0 0.00 0.04 0.04 89 1013.9
20180817233011 75 316 0.0 0.0 0.00 0.04 0.04 89 1013.9
20180817231517 75 316 0.0 0.0 0.00 0.04 0.04 87 1013.5
20180817230018 76 316 0.0 0.0 0.00 0.04 0.04 86 1013.5
20180817224515 76 316 0.0 0.0 0.00 0.04 0.04 86 1013.5
20180817223005 76 316 0.0 0.0 0.00 0.04 0.04 85 1013.5
20180817221508 76 316 0.0 0.0 0.00 0.04 0.04 86 1013.5
20180817220008 77 316 0.0 0.0 0.00 0.04 0.04 85 1013.5
20180817214509 77 316 0.0 0.0 0.00 0.04 0.04 85 1013.5
20180817213005 77 316 0.0 0.0 0.00 0.14 0.04 83 1013.5
20180817211505 78 316 0.0 0.0 0.00 0.24 0.04 85 1013.5
20180817210005 78 316 0.0 0.0 0.00 0.31 0.04 85 1013.5
20180817204506 78 316 0.0 0.0 0.00 0.31 0.04 88 1013.5
20180817203005 78 316 0.0 0.0 0.00 0.31 0.04 86 1013.5
20180817201505 78 316 0.0 0.0 0.00 0.31 0.04 88 1013.5
20180817200005 76 316 0.0 0.0 0.00 0.31 0.04 91 1013.9
20180817194508 76 316 0.0 0.0 0.00 0.31 0.04 92 1013.9
20180817193005 75 316 0.0 0.0 0.00 0.31 0.04 93 1013.9
20180817191505 75 316 0.0 0.0 0.00 0.31 0.04 95 1014.2
20180817190006 74 316 0.0 0.0 0.00 0.31 0.04 95 1014.5
20180817184505 74 316 0.0 0.0 0.00 0.31 0.04 94 1014.5
20180817183008 74 316 0.0 0.0 0.00 0.31 0.04 94 1014.5
20180817181505 74 316 0.0 0.0 0.00 0.31 0.04 94 1014.5
20180817180006 74 316 0.0 0.0 0.00 0.31 0.04 94 1014.5
20180817174511 74 316 0.0 0.0 0.00 0.31 0.04 94 1014.5
20180817173011 74 316 0.0 0.0 0.00 0.31 0.04 94 1014.5
20180817171512 74 316 0.0 0.0 0.00 0.31 0.04 93 1014.5
20180817170015 74 316 0.0 0.0 0.00 0.31 0.04 93 1014.9
20180817164508 74 316 0.0 0.0 0.00 0.30 0.03 92 1014.9
20180817163012 74 316 0.0 0.0 0.00 0.29 0.02 91 1014.9
20180817161507 74 316 0.0 0.0 0.00 0.29 0.02 92 1014.9
20180817160005 74 316 0.0 0.0 0.00 0.29 0.02 91 1015.2
20180817154512 74 316 0.0 0.0 0.00 0.29 0.02 91 1015.5
20180817153005 74 316 0.0 0.0 0.00 0.29 0.02 91 1015.5
20180817151510 74 316 0.0 0.0 0.00 0.29 0.02 91 1015.5
20180817150009 74 316 0.0 0.0 0.00 0.29 0.02 92 1015.5
20180817144509 74 316 0.0 0.0 0.00 0.29 0.02 92 1015.5
20180817143016 74 316 0.0 0.0 0.00 0.29 0.02 93 1015.5
20180817141507 74 316 0.0 0.0 0.00 0.29 0.02 94 1015.5
20180817140010 73 316 0.0 0.0 0.00 0.29 0.02 94 1015.9
20180817134511 73 316 0.0 0.0 0.00 0.29 0.02 95 1015.5
20180817133010 72 316 0.0 0.0 0.00 0.29 0.02 94 1015.5
20180817131509 72 316 0.0 0.0 0.00 0.29 0.02 93 1015.9
20180817130006 72 316 0.0 0.0 0.00 0.29 0.02 92 1016.2
20180817124514 72 316 0.0 0.0 0.00 0.28 0.01 92 1016.2
20180817123008 72 316 0.0 0.0 0.00 0.28 0.01 92 1016.2